sensor_id;sensor_type;location;lat;lon;timestamp;P1;durP1;ratioP1;P2;durP2;ratioP2
4603;SDS011;2314;48.272;11.562;2022-07-29T00:02:04;6.87;;;1.30;;
4603;SDS011;2314;48.272;11.562;2022-07-29T00:04:33;6.80;;;1.23;;
4603;SDS011;2314;48.272;11.562;2022-07-29T00:07:01;6.90;;;1.30;;
4603;SDS011;2314;48.272;11.562;2022-07-29T00:09:29;7.50;;;1.50;;
4603;SDS011;2314;48.272;11.562;2022-07-29T00:11:58;7.40;;;1.40;;
4603;SDS011;2314;48.272;11.562;2022-07-29T00:14:27;7.23;;;1.30;;
4603;SDS011;2314;48.272;11.562;2022-07-29T00:16:56;7.77;;;1.77;;
4603;SDS011;2314;48.272;11.562;2022-07-29T00:19:23;9.57;;;1.67;;
4603;SDS011;2314;48.272;11.562;2022-07-29T00:21:50;7.63;;;1.70;;
4603;SDS011;2314;48.272;11.562;2022-07-29T00:24:17;7.40;;;1.70;;
4603;SDS011;2314;48.272;11.562;2022-07-29T00:26:45;8.57;;;1.63;;
4603;SDS011;2314;48.272;11.562;2022-07-29T00:29:12;7.73;;;1.90;;
4603;SDS011;2314;48.272;11.562;2022-07-29T00:31:39;8.70;;;1.80;;
4603;SDS011;2314;48.272;11.562;2022-07-29T00:34:08;13.27;;;1.87;;
4603;SDS011;2314;48.272;11.562;2022-07-29T00:36:57;7.63;;;1.73;;
4603;SDS011;2314;48.272;11.562;2022-07-29T00:39:23;8.10;;;2.20;;
4603;SDS011;2314;48.272;11.562;2022-07-29T00:41:50;10.90;;;2.23;;
4603;SDS011;2314;48.272;11.562;2022-07-29T00:44:17;7.63;;;1.80;;
4603;SDS011;2314;48.272;11.562;2022-07-29T00:46:45;10.20;;;2.17;;
4603;SDS011;2314;48.272;11.562;2022-07-29T00:49:14;7.77;;;1.73;;
4603;SDS011;2314;48.272;11.562;2022-07-29T00:51:41;15.17;;;2.43;;
4603;SDS011;2314;48.272;11.562;2022-07-29T00:54:11;8.43;;;2.20;;
4603;SDS011;2314;48.272;11.562;2022-07-29T00:56:39;7.97;;;2.10;;
4603;SDS011;2314;48.272;11.562;2022-07-29T00:59:06;7.40;;;1.80;;
4603;SDS011;2314;48.272;11.562;2022-07-29T01:01:33;9.37;;;2.43;;
4603;SDS011;2314;48.272;11.562;2022-07-29T01:04:02;9.30;;;1.90;;
4603;SDS011;2314;48.272;11.562;2022-07-29T01:06:31;8.30;;;1.90;;
4603;SDS011;2314;48.272;11.562;2022-07-29T01:08:59;8.20;;;2.00;;
4603;SDS011;2314;48.272;11.562;2022-07-29T01:11:26;8.17;;;1.80;;
4603;SDS011;2314;48.272;11.562;2022-07-29T01:13:54;8.00;;;2.10;;
4603;SDS011;2314;48.272;11.562;2022-07-29T01:16:23;10.13;;;2.27;;
4603;SDS011;2314;48.272;11.562;2022-07-29T01:19:00;8.70;;;2.37;;
4603;SDS011;2314;48.272;11.562;2022-07-29T01:21:47;8.07;;;1.90;;
4603;SDS011;2314;48.272;11.562;2022-07-29T01:24:23;8.20;;;1.93;;
4603;SDS011;2314;48.272;11.562;2022-07-29T01:27:12;9.50;;;2.13;;
4603;SDS011;2314;48.272;11.562;2022-07-29T01:30:01;8.53;;;2.33;;
4603;SDS011;2314;48.272;11.562;2022-07-29T01:32:31;11.10;;;1.63;;
4603;SDS011;2314;48.272;11.562;2022-07-29T01:35:02;8.70;;;2.20;;
4603;SDS011;2314;48.272;11.562;2022-07-29T01:37:36;7.90;;;2.10;;
4603;SDS011;2314;48.272;11.562;2022-07-29T01:40:11;8.00;;;2.30;;
4603;SDS011;2314;48.272;11.562;2022-07-29T01:42:48;8.50;;;2.00;;
4603;SDS011;2314;48.272;11.562;2022-07-29T01:45:21;7.83;;;2.13;;
4603;SDS011;2314;48.272;11.562;2022-07-29T01:47:56;15.90;;;2.60;;
4603;SDS011;2314;48.272;11.562;2022-07-29T01:50:32;9.33;;;2.40;;
4603;SDS011;2314;48.272;11.562;2022-07-29T01:53:05;10.13;;;2.50;;
4603;SDS011;2314;48.272;11.562;2022-07-29T01:55:36;10.27;;;2.37;;
4603;SDS011;2314;48.272;11.562;2022-07-29T01:58:08;9.80;;;2.40;;
4603;SDS011;2314;48.272;11.562;2022-07-29T02:00:38;10.03;;;2.30;;
4603;SDS011;2314;48.272;11.562;2022-07-29T02:03:07;10.50;;;2.70;;
4603;SDS011;2314;48.272;11.562;2022-07-29T02:05:38;9.30;;;2.30;;
4603;SDS011;2314;48.272;11.562;2022-07-29T02:08:09;8.70;;;2.40;;
4603;SDS011;2314;48.272;11.562;2022-07-29T02:10:38;9.27;;;2.50;;
4603;SDS011;2314;48.272;11.562;2022-07-29T02:13:08;11.50;;;2.37;;
4603;SDS011;2314;48.272;11.562;2022-07-29T02:15:39;13.23;;;2.97;;
4603;SDS011;2314;48.272;11.562;2022-07-29T02:18:09;9.23;;;2.60;;
4603;SDS011;2314;48.272;11.562;2022-07-29T02:20:42;9.03;;;2.57;;
4603;SDS011;2314;48.272;11.562;2022-07-29T02:23:14;8.90;;;2.60;;
4603;SDS011;2314;48.272;11.562;2022-07-29T02:25:46;9.77;;;3.10;;
4603;SDS011;2314;48.272;11.562;2022-07-29T02:28:17;10.00;;;3.00;;
4603;SDS011;2314;48.272;11.562;2022-07-29T02:30:47;8.73;;;2.30;;
4603;SDS011;2314;48.272;11.562;2022-07-29T02:33:16;12.80;;;2.77;;
4603;SDS011;2314;48.272;11.562;2022-07-29T02:35:46;9.67;;;2.37;;
4603;SDS011;2314;48.272;11.562;2022-07-29T02:38:15;9.10;;;2.63;;
4603;SDS011;2314;48.272;11.562;2022-07-29T02:41:01;8.60;;;2.30;;
4603;SDS011;2314;48.272;11.562;2022-07-29T02:43:36;9.20;;;2.70;;
4603;SDS011;2314;48.272;11.562;2022-07-29T02:46:06;13.90;;;2.80;;
4603;SDS011;2314;48.272;11.562;2022-07-29T02:48:41;8.77;;;2.33;;
4603;SDS011;2314;48.272;11.562;2022-07-29T02:51:23;9.53;;;2.50;;
4603;SDS011;2314;48.272;11.562;2022-07-29T02:53:55;9.60;;;2.70;;
4603;SDS011;2314;48.272;11.562;2022-07-29T02:56:28;11.93;;;2.90;;
4603;SDS011;2314;48.272;11.562;2022-07-29T02:59:03;9.20;;;2.67;;
4603;SDS011;2314;48.272;11.562;2022-07-29T03:01:38;9.73;;;2.70;;
4603;SDS011;2314;48.272;11.562;2022-07-29T03:04:09;11.90;;;3.20;;
4603;SDS011;2314;48.272;11.562;2022-07-29T03:06:39;9.00;;;2.80;;
4603;SDS011;2314;48.272;11.562;2022-07-29T03:09:09;9.53;;;2.67;;
4603;SDS011;2314;48.272;11.562;2022-07-29T03:11:38;10.43;;;3.17;;
4603;SDS011;2314;48.272;11.562;2022-07-29T03:14:05;11.27;;;3.23;;
4603;SDS011;2314;48.272;11.562;2022-07-29T03:16:33;9.77;;;2.77;;
4603;SDS011;2314;48.272;11.562;2022-07-29T03:19:03;9.47;;;3.00;;
4603;SDS011;2314;48.272;11.562;2022-07-29T03:21:31;12.40;;;2.80;;
4603;SDS011;2314;48.272;11.562;2022-07-29T03:23:59;9.97;;;3.23;;
4603;SDS011;2314;48.272;11.562;2022-07-29T03:26:27;9.50;;;2.63;;
4603;SDS011;2314;48.272;11.562;2022-07-29T03:28:54;8.50;;;2.40;;
4603;SDS011;2314;48.272;11.562;2022-07-29T03:31:21;10.20;;;3.00;;
4603;SDS011;2314;48.272;11.562;2022-07-29T03:33:48;10.20;;;3.10;;
4603;SDS011;2314;48.272;11.562;2022-07-29T03:36:18;9.10;;;2.53;;
4603;SDS011;2314;48.272;11.562;2022-07-29T03:38:46;12.97;;;3.40;;
4603;SDS011;2314;48.272;11.562;2022-07-29T03:41:14;8.40;;;2.43;;
4603;SDS011;2314;48.272;11.562;2022-07-29T03:43:43;10.67;;;2.90;;
4603;SDS011;2314;48.272;11.562;2022-07-29T03:46:12;9.73;;;2.77;;
4603;SDS011;2314;48.272;11.562;2022-07-29T03:48:44;9.60;;;3.10;;
4603;SDS011;2314;48.272;11.562;2022-07-29T03:51:15;9.30;;;2.53;;
4603;SDS011;2314;48.272;11.562;2022-07-29T03:53:43;12.00;;;3.27;;
4603;SDS011;2314;48.272;11.562;2022-07-29T03:56:11;10.13;;;3.00;;
4603;SDS011;2314;48.272;11.562;2022-07-29T03:58:43;11.43;;;3.57;;
4603;SDS011;2314;48.272;11.562;2022-07-29T04:01:11;14.73;;;3.70;;
4603;SDS011;2314;48.272;11.562;2022-07-29T04:03:39;9.47;;;2.50;;
4603;SDS011;2314;48.272;11.562;2022-07-29T04:06:06;9.93;;;2.87;;
4603;SDS011;2314;48.272;11.562;2022-07-29T04:08:34;10.87;;;3.33;;
4603;SDS011;2314;48.272;11.562;2022-07-29T04:11:03;10.20;;;2.97;;
4603;SDS011;2314;48.272;11.562;2022-07-29T04:13:31;8.50;;;2.43;;
4603;SDS011;2314;48.272;11.562;2022-07-29T04:15:59;13.67;;;3.30;;
4603;SDS011;2314;48.272;11.562;2022-07-29T04:18:26;10.67;;;3.37;;
4603;SDS011;2314;48.272;11.562;2022-07-29T04:20:54;12.53;;;3.40;;
4603;SDS011;2314;48.272;11.562;2022-07-29T04:23:21;11.53;;;3.60;;
4603;SDS011;2314;48.272;11.562;2022-07-29T04:25:48;10.23;;;3.50;;
4603;SDS011;2314;48.272;11.562;2022-07-29T04:28:17;9.93;;;3.50;;
4603;SDS011;2314;48.272;11.562;2022-07-29T04:30:44;10.87;;;3.63;;
4603;SDS011;2314;48.272;11.562;2022-07-29T04:33:11;9.30;;;3.10;;
4603;SDS011;2314;48.272;11.562;2022-07-29T04:35:38;12.10;;;3.93;;
4603;SDS011;2314;48.272;11.562;2022-07-29T04:38:05;11.17;;;3.10;;
4603;SDS011;2314;48.272;11.562;2022-07-29T04:40:33;12.50;;;4.20;;
4603;SDS011;2314;48.272;11.562;2022-07-29T04:43:00;9.50;;;3.23;;
4603;SDS011;2314;48.272;11.562;2022-07-29T04:45:29;19.70;;;3.43;;
4603;SDS011;2314;48.272;11.562;2022-07-29T04:47:56;9.13;;;2.90;;
4603;SDS011;2314;48.272;11.562;2022-07-29T04:50:23;10.07;;;3.20;;
4603;SDS011;2314;48.272;11.562;2022-07-29T04:52:50;9.97;;;3.50;;
4603;SDS011;2314;48.272;11.562;2022-07-29T04:55:18;9.67;;;3.30;;
4603;SDS011;2314;48.272;11.562;2022-07-29T04:57:45;10.20;;;3.30;;
4603;SDS011;2314;48.272;11.562;2022-07-29T05:00:12;11.37;;;3.50;;
4603;SDS011;2314;48.272;11.562;2022-07-29T05:02:41;11.70;;;3.27;;
4603;SDS011;2314;48.272;11.562;2022-07-29T05:05:09;10.77;;;2.83;;
4603;SDS011;2314;48.272;11.562;2022-07-29T05:07:36;10.70;;;2.67;;
4603;SDS011;2314;48.272;11.562;2022-07-29T05:10:03;10.67;;;3.37;;
4603;SDS011;2314;48.272;11.562;2022-07-29T05:12:31;9.63;;;3.00;;
4603;SDS011;2314;48.272;11.562;2022-07-29T05:14:59;11.53;;;3.27;;
4603;SDS011;2314;48.272;11.562;2022-07-29T05:17:26;10.23;;;3.60;;
4603;SDS011;2314;48.272;11.562;2022-07-29T05:19:54;14.23;;;3.40;;
4603;SDS011;2314;48.272;11.562;2022-07-29T05:22:21;10.37;;;3.03;;
4603;SDS011;2314;48.272;11.562;2022-07-29T05:24:49;10.73;;;3.00;;
4603;SDS011;2314;48.272;11.562;2022-07-29T05:27:16;15.70;;;2.87;;
4603;SDS011;2314;48.272;11.562;2022-07-29T05:29:43;9.60;;;3.30;;
4603;SDS011;2314;48.272;11.562;2022-07-29T05:32:10;8.80;;;2.73;;
4603;SDS011;2314;48.272;11.562;2022-07-29T05:34:38;12.13;;;3.30;;
4603;SDS011;2314;48.272;11.562;2022-07-29T05:37:06;10.97;;;2.50;;
4603;SDS011;2314;48.272;11.562;2022-07-29T05:39:33;8.73;;;2.50;;
4603;SDS011;2314;48.272;11.562;2022-07-29T05:42:01;10.43;;;2.20;;
4603;SDS011;2314;48.272;11.562;2022-07-29T05:44:28;8.47;;;2.50;;
4603;SDS011;2314;48.272;11.562;2022-07-29T05:46:55;9.50;;;2.50;;
4603;SDS011;2314;48.272;11.562;2022-07-29T05:49:22;10.20;;;2.70;;
4603;SDS011;2314;48.272;11.562;2022-07-29T05:51:49;8.10;;;2.20;;
4603;SDS011;2314;48.272;11.562;2022-07-29T05:54:17;8.07;;;2.27;;
4603;SDS011;2314;48.272;11.562;2022-07-29T05:56:44;8.00;;;1.93;;
4603;SDS011;2314;48.272;11.562;2022-07-29T05:59:11;7.60;;;1.83;;
4603;SDS011;2314;48.272;11.562;2022-07-29T06:01:39;10.53;;;2.80;;
4603;SDS011;2314;48.272;11.562;2022-07-29T06:04:06;7.60;;;1.80;;
4603;SDS011;2314;48.272;11.562;2022-07-29T06:06:33;8.33;;;2.00;;
4603;SDS011;2314;48.272;11.562;2022-07-29T06:09:01;10.73;;;2.30;;
4603;SDS011;2314;48.272;11.562;2022-07-29T06:11:30;11.60;;;2.20;;
4603;SDS011;2314;48.272;11.562;2022-07-29T06:13:57;8.43;;;1.97;;
4603;SDS011;2314;48.272;11.562;2022-07-29T06:16:24;7.37;;;1.80;;
4603;SDS011;2314;48.272;11.562;2022-07-29T06:18:51;10.17;;;2.30;;
4603;SDS011;2314;48.272;11.562;2022-07-29T06:21:18;7.90;;;1.80;;
4603;SDS011;2314;48.272;11.562;2022-07-29T06:23:45;8.50;;;1.53;;
4603;SDS011;2314;48.272;11.562;2022-07-29T06:26:13;9.43;;;2.00;;
4603;SDS011;2314;48.272;11.562;2022-07-29T06:28:41;11.00;;;2.17;;
4603;SDS011;2314;48.272;11.562;2022-07-29T06:31:08;8.33;;;2.10;;
4603;SDS011;2314;48.272;11.562;2022-07-29T06:33:35;13.90;;;1.90;;
4603;SDS011;2314;48.272;11.562;2022-07-29T06:36:03;8.83;;;1.73;;
4603;SDS011;2314;48.272;11.562;2022-07-29T06:38:32;7.50;;;2.00;;
4603;SDS011;2314;48.272;11.562;2022-07-29T06:40:59;8.07;;;2.20;;
4603;SDS011;2314;48.272;11.562;2022-07-29T06:43:27;9.30;;;2.00;;
4603;SDS011;2314;48.272;11.562;2022-07-29T06:46:00;8.27;;;2.00;;
4603;SDS011;2314;48.272;11.562;2022-07-29T06:48:30;8.20;;;2.20;;
4603;SDS011;2314;48.272;11.562;2022-07-29T06:50:57;7.83;;;1.80;;
4603;SDS011;2314;48.272;11.562;2022-07-29T06:53:25;7.40;;;1.63;;
4603;SDS011;2314;48.272;11.562;2022-07-29T06:55:53;8.20;;;2.20;;
4603;SDS011;2314;48.272;11.562;2022-07-29T06:58:20;7.67;;;1.77;;
4603;SDS011;2314;48.272;11.562;2022-07-29T07:00:47;7.50;;;1.80;;
4603;SDS011;2314;48.272;11.562;2022-07-29T07:03:16;9.33;;;2.00;;
4603;SDS011;2314;48.272;11.562;2022-07-29T07:05:44;8.30;;;2.00;;
4603;SDS011;2314;48.272;11.562;2022-07-29T07:08:12;7.17;;;1.60;;
4603;SDS011;2314;48.272;11.562;2022-07-29T07:10:41;7.77;;;1.93;;
4603;SDS011;2314;48.272;11.562;2022-07-29T07:13:08;8.40;;;2.20;;
4603;SDS011;2314;48.272;11.562;2022-07-29T07:15:35;8.67;;;2.10;;
4603;SDS011;2314;48.272;11.562;2022-07-29T07:18:02;8.27;;;2.10;;
4603;SDS011;2314;48.272;11.562;2022-07-29T07:20:32;15.00;;;2.30;;
4603;SDS011;2314;48.272;11.562;2022-07-29T07:22:59;9.50;;;1.40;;
4603;SDS011;2314;48.272;11.562;2022-07-29T07:25:26;11.93;;;2.10;;
4603;SDS011;2314;48.272;11.562;2022-07-29T07:27:54;7.43;;;1.40;;
4603;SDS011;2314;48.272;11.562;2022-07-29T07:30:21;7.37;;;1.80;;
4603;SDS011;2314;48.272;11.562;2022-07-29T07:32:48;7.97;;;1.80;;
4603;SDS011;2314;48.272;11.562;2022-07-29T07:35:15;7.63;;;1.73;;
4603;SDS011;2314;48.272;11.562;2022-07-29T07:37:44;6.80;;;1.43;;
4603;SDS011;2314;48.272;11.562;2022-07-29T07:40:11;6.97;;;1.50;;
4603;SDS011;2314;48.272;11.562;2022-07-29T07:42:38;7.47;;;1.50;;
4603;SDS011;2314;48.272;11.562;2022-07-29T07:45:07;10.83;;;2.17;;
4603;SDS011;2314;48.272;11.562;2022-07-29T07:47:35;8.00;;;1.47;;
4603;SDS011;2314;48.272;11.562;2022-07-29T07:50:03;15.80;;;1.73;;
4603;SDS011;2314;48.272;11.562;2022-07-29T07:52:32;8.13;;;1.67;;
4603;SDS011;2314;48.272;11.562;2022-07-29T07:55:00;8.57;;;1.90;;
4603;SDS011;2314;48.272;11.562;2022-07-29T07:57:27;8.30;;;1.70;;
4603;SDS011;2314;48.272;11.562;2022-07-29T07:59:55;7.20;;;1.60;;
4603;SDS011;2314;48.272;11.562;2022-07-29T08:02:22;7.67;;;1.73;;
4603;SDS011;2314;48.272;11.562;2022-07-29T08:04:49;7.53;;;1.63;;
4603;SDS011;2314;48.272;11.562;2022-07-29T08:07:16;6.90;;;1.63;;
4603;SDS011;2314;48.272;11.562;2022-07-29T08:09:43;7.60;;;1.90;;
4603;SDS011;2314;48.272;11.562;2022-07-29T08:12:11;10.33;;;1.83;;
4603;SDS011;2314;48.272;11.562;2022-07-29T08:14:38;9.00;;;1.60;;
4603;SDS011;2314;48.272;11.562;2022-07-29T08:17:05;7.70;;;1.70;;
4603;SDS011;2314;48.272;11.562;2022-07-29T08:19:32;8.10;;;1.90;;
4603;SDS011;2314;48.272;11.562;2022-07-29T08:21:59;7.20;;;1.60;;
4603;SDS011;2314;48.272;11.562;2022-07-29T08:24:26;8.10;;;1.50;;
4603;SDS011;2314;48.272;11.562;2022-07-29T08:27:18;6.60;;;1.40;;
4603;SDS011;2314;48.272;11.562;2022-07-29T08:29:46;6.40;;;1.40;;
4603;SDS011;2314;48.272;11.562;2022-07-29T08:32:13;7.00;;;1.63;;
4603;SDS011;2314;48.272;11.562;2022-07-29T08:34:40;7.67;;;1.60;;
4603;SDS011;2314;48.272;11.562;2022-07-29T08:37:09;7.47;;;1.50;;
4603;SDS011;2314;48.272;11.562;2022-07-29T08:39:36;6.30;;;1.33;;
4603;SDS011;2314;48.272;11.562;2022-07-29T08:42:03;10.03;;;1.50;;
4603;SDS011;2314;48.272;11.562;2022-07-29T08:44:34;6.10;;;1.47;;
4603;SDS011;2314;48.272;11.562;2022-07-29T08:47:02;8.53;;;1.37;;
4603;SDS011;2314;48.272;11.562;2022-07-29T08:49:29;7.97;;;1.60;;
4603;SDS011;2314;48.272;11.562;2022-07-29T08:51:58;5.90;;;1.20;;
4603;SDS011;2314;48.272;11.562;2022-07-29T08:54:27;5.90;;;1.20;;
4603;SDS011;2314;48.272;11.562;2022-07-29T08:56:55;6.47;;;1.40;;
4603;SDS011;2314;48.272;11.562;2022-07-29T08:59:22;6.77;;;1.30;;
4603;SDS011;2314;48.272;11.562;2022-07-29T09:01:55;5.63;;;1.30;;
4603;SDS011;2314;48.272;11.562;2022-07-29T09:04:26;7.20;;;1.57;;
4603;SDS011;2314;48.272;11.562;2022-07-29T09:06:58;9.47;;;1.80;;
4603;SDS011;2314;48.272;11.562;2022-07-29T09:09:30;5.30;;;1.20;;
4603;SDS011;2314;48.272;11.562;2022-07-29T09:11:59;7.30;;;1.40;;
4603;SDS011;2314;48.272;11.562;2022-07-29T09:14:28;5.80;;;1.53;;
4603;SDS011;2314;48.272;11.562;2022-07-29T09:16:57;7.33;;;1.40;;
4603;SDS011;2314;48.272;11.562;2022-07-29T09:19:26;7.53;;;1.60;;
4603;SDS011;2314;48.272;11.562;2022-07-29T09:21:56;5.67;;;1.43;;
4603;SDS011;2314;48.272;11.562;2022-07-29T09:24:25;7.10;;;1.90;;
4603;SDS011;2314;48.272;11.562;2022-07-29T09:27:06;5.60;;;1.60;;
4603;SDS011;2314;48.272;11.562;2022-07-29T09:29:46;9.03;;;1.63;;
4603;SDS011;2314;48.272;11.562;2022-07-29T09:32:16;5.43;;;1.37;;
4603;SDS011;2314;48.272;11.562;2022-07-29T09:34:43;6.27;;;1.60;;
4603;SDS011;2314;48.272;11.562;2022-07-29T09:37:10;5.73;;;1.70;;
4603;SDS011;2314;48.272;11.562;2022-07-29T09:39:38;5.67;;;1.50;;
4603;SDS011;2314;48.272;11.562;2022-07-29T09:42:10;7.03;;;1.67;;
4603;SDS011;2314;48.272;11.562;2022-07-29T09:44:42;7.97;;;2.20;;
4603;SDS011;2314;48.272;11.562;2022-07-29T09:47:11;8.77;;;1.80;;
4603;SDS011;2314;48.272;11.562;2022-07-29T09:49:53;6.37;;;1.70;;
4603;SDS011;2314;48.272;11.562;2022-07-29T09:52:23;6.37;;;1.87;;
4603;SDS011;2314;48.272;11.562;2022-07-29T09:54:51;8.80;;;2.17;;
4603;SDS011;2314;48.272;11.562;2022-07-29T09:57:22;7.50;;;2.43;;
4603;SDS011;2314;48.272;11.562;2022-07-29T10:00:02;7.40;;;1.87;;
4603;SDS011;2314;48.272;11.562;2022-07-29T10:02:34;7.80;;;2.10;;
4603;SDS011;2314;48.272;11.562;2022-07-29T10:05:04;8.90;;;2.40;;
4603;SDS011;2314;48.272;11.562;2022-07-29T10:07:45;6.90;;;1.80;;
4603;SDS011;2314;48.272;11.562;2022-07-29T10:10:20;6.63;;;1.80;;
4603;SDS011;2314;48.272;11.562;2022-07-29T10:12:50;7.93;;;2.00;;
4603;SDS011;2314;48.272;11.562;2022-07-29T10:15:20;6.27;;;1.90;;
4603;SDS011;2314;48.272;11.562;2022-07-29T10:17:49;7.77;;;2.00;;
4603;SDS011;2314;48.272;11.562;2022-07-29T10:20:18;7.17;;;2.27;;
4603;SDS011;2314;48.272;11.562;2022-07-29T10:22:46;13.37;;;2.10;;
4603;SDS011;2314;48.272;11.562;2022-07-29T10:25:14;13.00;;;2.00;;
4603;SDS011;2314;48.272;11.562;2022-07-29T10:27:43;8.70;;;2.27;;
4603;SDS011;2314;48.272;11.562;2022-07-29T10:30:11;6.80;;;2.03;;
4603;SDS011;2314;48.272;11.562;2022-07-29T10:32:45;8.23;;;2.17;;
4603;SDS011;2314;48.272;11.562;2022-07-29T10:35:43;7.60;;;2.33;;
4603;SDS011;2314;48.272;11.562;2022-07-29T10:44:22;8.63;;;2.07;;
4603;SDS011;2314;48.272;11.562;2022-07-29T10:46:52;13.60;;;2.37;;
4603;SDS011;2314;48.272;11.562;2022-07-29T10:49:19;6.40;;;2.10;;
4603;SDS011;2314;48.272;11.562;2022-07-29T10:54:43;8.43;;;1.90;;
4603;SDS011;2314;48.272;11.562;2022-07-29T10:57:19;6.60;;;2.20;;
4603;SDS011;2314;48.272;11.562;2022-07-29T11:02:59;7.80;;;1.80;;
4603;SDS011;2314;48.272;11.562;2022-07-29T11:05:26;8.20;;;2.23;;
4603;SDS011;2314;48.272;11.562;2022-07-29T11:10:52;7.90;;;1.93;;
4603;SDS011;2314;48.272;11.562;2022-07-29T11:14:02;7.80;;;1.87;;
4603;SDS011;2314;48.272;11.562;2022-07-29T11:19:27;8.20;;;2.50;;
4603;SDS011;2314;48.272;11.562;2022-07-29T11:21:55;10.13;;;2.40;;
4603;SDS011;2314;48.272;11.562;2022-07-29T11:24:24;7.40;;;2.00;;
4603;SDS011;2314;48.272;11.562;2022-07-29T11:27:08;7.03;;;2.20;;
4603;SDS011;2314;48.272;11.562;2022-07-29T11:29:47;10.07;;;2.53;;
4603;SDS011;2314;48.272;11.562;2022-07-29T11:32:18;10.13;;;1.90;;
4603;SDS011;2314;48.272;11.562;2022-07-29T11:34:46;8.53;;;1.60;;
4603;SDS011;2314;48.272;11.562;2022-07-29T11:37:21;5.97;;;1.80;;
4603;SDS011;2314;48.272;11.562;2022-07-29T11:40:10;6.10;;;1.90;;
4603;SDS011;2314;48.272;11.562;2022-07-29T11:42:43;10.17;;;2.20;;
4603;SDS011;2314;48.272;11.562;2022-07-29T11:45:15;12.40;;;1.90;;
4603;SDS011;2314;48.272;11.562;2022-07-29T11:47:53;9.90;;;1.90;;
4603;SDS011;2314;48.272;11.562;2022-07-29T11:50:31;7.43;;;2.10;;
4603;SDS011;2314;48.272;11.562;2022-07-29T11:53:00;7.57;;;1.90;;
4603;SDS011;2314;48.272;11.562;2022-07-29T11:55:31;9.13;;;2.07;;
4603;SDS011;2314;48.272;11.562;2022-07-29T11:58:00;7.93;;;2.07;;
4603;SDS011;2314;48.272;11.562;2022-07-29T12:00:29;5.50;;;1.40;;
4603;SDS011;2314;48.272;11.562;2022-07-29T12:02:58;7.90;;;1.50;;
4603;SDS011;2314;48.272;11.562;2022-07-29T12:05:35;7.40;;;1.87;;
4603;SDS011;2314;48.272;11.562;2022-07-29T12:08:06;6.83;;;1.60;;
4603;SDS011;2314;48.272;11.562;2022-07-29T12:10:37;7.37;;;1.90;;
4603;SDS011;2314;48.272;11.562;2022-07-29T12:13:05;6.70;;;1.63;;
4603;SDS011;2314;48.272;11.562;2022-07-29T12:15:33;8.50;;;1.57;;
4603;SDS011;2314;48.272;11.562;2022-07-29T12:18:09;6.47;;;1.90;;
4603;SDS011;2314;48.272;11.562;2022-07-29T12:20:40;8.03;;;2.00;;
4603;SDS011;2314;48.272;11.562;2022-07-29T12:23:08;8.50;;;2.00;;
4603;SDS011;2314;48.272;11.562;2022-07-29T12:25:39;6.67;;;1.93;;
4603;SDS011;2314;48.272;11.562;2022-07-29T12:28:08;11.83;;;2.07;;
4603;SDS011;2314;48.272;11.562;2022-07-29T12:30:39;6.80;;;1.80;;
4603;SDS011;2314;48.272;11.562;2022-07-29T12:33:16;10.10;;;2.10;;
4603;SDS011;2314;48.272;11.562;2022-07-29T12:35:47;7.00;;;1.97;;
4603;SDS011;2314;48.272;11.562;2022-07-29T12:38:17;7.80;;;2.10;;
4603;SDS011;2314;48.272;11.562;2022-07-29T12:40:47;6.50;;;1.70;;
4603;SDS011;2314;48.272;11.562;2022-07-29T12:43:16;8.20;;;1.80;;
4603;SDS011;2314;48.272;11.562;2022-07-29T12:45:46;11.87;;;2.17;;
4603;SDS011;2314;48.272;11.562;2022-07-29T12:48:15;9.00;;;1.83;;
4603;SDS011;2314;48.272;11.562;2022-07-29T12:50:56;6.87;;;2.10;;
4603;SDS011;2314;48.272;11.562;2022-07-29T12:53:26;7.40;;;2.00;;
4603;SDS011;2314;48.272;11.562;2022-07-29T12:55:55;7.70;;;1.80;;
4603;SDS011;2314;48.272;11.562;2022-07-29T12:58:29;9.70;;;2.10;;
4603;SDS011;2314;48.272;11.562;2022-07-29T13:01:00;8.37;;;2.10;;
4603;SDS011;2314;48.272;11.562;2022-07-29T13:03:44;10.33;;;2.00;;
4603;SDS011;2314;48.272;11.562;2022-07-29T13:06:33;8.67;;;1.93;;
4603;SDS011;2314;48.272;11.562;2022-07-29T13:09:04;10.60;;;2.37;;
4603;SDS011;2314;48.272;11.562;2022-07-29T13:11:36;7.47;;;1.70;;
4603;SDS011;2314;48.272;11.562;2022-07-29T13:14:07;7.77;;;2.13;;
4603;SDS011;2314;48.272;11.562;2022-07-29T13:16:36;6.40;;;1.70;;
4603;SDS011;2314;48.272;11.562;2022-07-29T13:19:32;18.60;;;2.10;;
4603;SDS011;2314;48.272;11.562;2022-07-29T13:22:01;17.73;;;2.40;;
4603;SDS011;2314;48.272;11.562;2022-07-29T13:24:28;6.90;;;2.07;;
4603;SDS011;2314;48.272;11.562;2022-07-29T13:26:57;10.40;;;2.30;;
4603;SDS011;2314;48.272;11.562;2022-07-29T13:29:24;15.73;;;2.10;;
4603;SDS011;2314;48.272;11.562;2022-07-29T13:31:52;8.80;;;2.33;;
4603;SDS011;2314;48.272;11.562;2022-07-29T13:34:19;7.53;;;1.70;;
4603;SDS011;2314;48.272;11.562;2022-07-29T13:36:47;12.30;;;2.00;;
4603;SDS011;2314;48.272;11.562;2022-07-29T13:39:14;7.40;;;1.97;;
4603;SDS011;2314;48.272;11.562;2022-07-29T13:41:41;7.90;;;1.83;;
4603;SDS011;2314;48.272;11.562;2022-07-29T13:44:09;7.07;;;1.80;;
4603;SDS011;2314;48.272;11.562;2022-07-29T13:46:36;9.33;;;2.13;;
4603;SDS011;2314;48.272;11.562;2022-07-29T13:49:03;7.30;;;2.10;;
4603;SDS011;2314;48.272;11.562;2022-07-29T13:51:30;7.67;;;1.90;;
4603;SDS011;2314;48.272;11.562;2022-07-29T13:53:57;8.37;;;1.70;;
4603;SDS011;2314;48.272;11.562;2022-07-29T13:56:25;8.37;;;1.77;;
4603;SDS011;2314;48.272;11.562;2022-07-29T13:58:52;8.83;;;2.00;;
4603;SDS011;2314;48.272;11.562;2022-07-29T14:01:20;10.43;;;2.07;;
4603;SDS011;2314;48.272;11.562;2022-07-29T14:03:47;7.97;;;2.07;;
4603;SDS011;2314;48.272;11.562;2022-07-29T14:06:15;8.83;;;1.97;;
4603;SDS011;2314;48.272;11.562;2022-07-29T14:08:42;18.43;;;2.20;;
4603;SDS011;2314;48.272;11.562;2022-07-29T14:11:09;8.93;;;1.97;;
4603;SDS011;2314;48.272;11.562;2022-07-29T14:13:36;8.00;;;2.00;;
4603;SDS011;2314;48.272;11.562;2022-07-29T14:16:03;7.60;;;1.80;;
4603;SDS011;2314;48.272;11.562;2022-07-29T14:18:33;9.83;;;1.80;;
4603;SDS011;2314;48.272;11.562;2022-07-29T14:21:00;7.83;;;1.80;;
4603;SDS011;2314;48.272;11.562;2022-07-29T14:23:27;10.77;;;2.10;;
4603;SDS011;2314;48.272;11.562;2022-07-29T14:25:55;9.00;;;1.90;;
4603;SDS011;2314;48.272;11.562;2022-07-29T14:28:22;7.63;;;1.97;;
4603;SDS011;2314;48.272;11.562;2022-07-29T14:30:49;7.53;;;1.80;;
4603;SDS011;2314;48.272;11.562;2022-07-29T14:33:16;8.43;;;1.93;;
4603;SDS011;2314;48.272;11.562;2022-07-29T14:35:45;8.73;;;1.90;;
4603;SDS011;2314;48.272;11.562;2022-07-29T14:38:12;7.27;;;2.03;;
4603;SDS011;2314;48.272;11.562;2022-07-29T14:40:39;8.80;;;1.90;;
4603;SDS011;2314;48.272;11.562;2022-07-29T14:43:06;11.90;;;2.50;;
4603;SDS011;2314;48.272;11.562;2022-07-29T14:45:33;7.00;;;1.73;;
4603;SDS011;2314;48.272;11.562;2022-07-29T14:48:00;8.20;;;1.83;;
4603;SDS011;2314;48.272;11.562;2022-07-29T14:50:27;7.90;;;2.00;;
4603;SDS011;2314;48.272;11.562;2022-07-29T14:52:58;7.17;;;1.80;;
4603;SDS011;2314;48.272;11.562;2022-07-29T14:55:26;15.17;;;2.10;;
4603;SDS011;2314;48.272;11.562;2022-07-29T14:57:53;8.50;;;2.10;;
4603;SDS011;2314;48.272;11.562;2022-07-29T15:00:20;10.70;;;2.03;;
4603;SDS011;2314;48.272;11.562;2022-07-29T15:02:47;8.93;;;2.10;;
4603;SDS011;2314;48.272;11.562;2022-07-29T15:05:15;9.33;;;1.90;;
4603;SDS011;2314;48.272;11.562;2022-07-29T15:07:42;9.80;;;2.07;;
4603;SDS011;2314;48.272;11.562;2022-07-29T15:10:10;8.77;;;2.23;;
4603;SDS011;2314;48.272;11.562;2022-07-29T15:12:37;21.33;;;2.27;;
4603;SDS011;2314;48.272;11.562;2022-07-29T15:15:05;9.73;;;2.73;;
4603;SDS011;2314;48.272;11.562;2022-07-29T15:17:33;9.40;;;2.10;;
4603;SDS011;2314;48.272;11.562;2022-07-29T15:20:00;10.10;;;2.47;;
4603;SDS011;2314;48.272;11.562;2022-07-29T15:22:27;7.97;;;2.00;;
4603;SDS011;2314;48.272;11.562;2022-07-29T15:24:54;10.30;;;2.20;;
4603;SDS011;2314;48.272;11.562;2022-07-29T15:27:23;13.03;;;2.57;;
4603;SDS011;2314;48.272;11.562;2022-07-29T15:29:50;10.63;;;2.57;;
4603;SDS011;2314;48.272;11.562;2022-07-29T15:32:17;7.93;;;2.37;;